sensor_id;sensor_type;location;lat;lon;timestamp;pressure;altitude;pressure_sealevel;temperature;humidity
22688;BME280;11511;51.514;7.080;2023-09-19T00:00:00;100362.38;;;14.09;100.00
22688;BME280;11511;51.514;7.080;2023-09-19T00:02:26;100354.25;;;14.28;100.00
22688;BME280;11511;51.514;7.080;2023-09-19T00:04:51;100364.81;;;13.96;100.00
22688;BME280;11511;51.514;7.080;2023-09-19T00:07:17;100365.91;;;13.76;100.00
22688;BME280;11511;51.514;7.080;2023-09-19T00:09:42;100366.59;;;13.96;100.00
22688;BME280;11511;51.514;7.080;2023-09-19T00:12:09;100373.97;;;13.91;100.00
22688;BME280;11511;51.514;7.080;2023-09-19T00:14:35;100372.75;;;13.96;100.00
22688;BME280;11511;51.514;7.080;2023-09-19T00:17:01;100373.44;;;14.00;100.00
22688;BME280;11511;51.514;7.080;2023-09-19T00:19:32;100365.81;;;13.78;100.00
22688;BME280;11511;51.514;7.080;2023-09-19T00:21:58;100372.75;;;13.80;100.00
22688;BME280;11511;51.514;7.080;2023-09-19T00:24:23;100376.47;;;13.76;100.00
22688;BME280;11511;51.514;7.080;2023-09-19T00:26:49;100372.97;;;13.76;100.00
22688;BME280;11511;51.514;7.080;2023-09-19T00:29:14;100378.25;;;13.93;100.00
22688;BME280;11511;51.514;7.080;2023-09-19T00:31:43;100386.50;;;13.87;100.00
22688;BME280;11511;51.514;7.080;2023-09-19T00:34:08;100372.13;;;13.75;100.00
22688;BME280;11511;51.514;7.080;2023-09-19T00:36:36;100371.88;;;13.80;100.00
22688;BME280;11511;51.514;7.080;2023-09-19T00:39:03;100381.47;;;13.82;100.00
22688;BME280;11511;51.514;7.080;2023-09-19T00:41:30;100380.22;;;13.72;100.00
22688;BME280;11511;51.514;7.080;2023-09-19T00:43:55;100389.44;;;13.65;100.00
22688;BME280;11511;51.514;7.080;2023-09-19T00:46:21;100382.63;;;13.77;100.00
22688;BME280;11511;51.514;7.080;2023-09-19T00:48:46;100380.69;;;13.80;100.00
22688;BME280;11511;51.514;7.080;2023-09-19T00:51:12;100387.16;;;13.75;100.00
22688;BME280;11511;51.514;7.080;2023-09-19T00:53:39;100383.34;;;13.96;100.00
22688;BME280;11511;51.514;7.080;2023-09-19T00:56:05;100383.97;;;14.01;100.00
22688;BME280;11511;51.514;7.080;2023-09-19T00:58:32;100389.84;;;13.91;100.00
22688;BME280;11511;51.514;7.080;2023-09-19T01:00:59;100390.13;;;13.69;100.00
22688;BME280;11511;51.514;7.080;2023-09-19T01:03:24;100392.06;;;13.82;100.00
22688;BME280;11511;51.514;7.080;2023-09-19T01:05:49;100402.19;;;13.74;100.00
22688;BME280;11511;51.514;7.080;2023-09-19T01:08:15;100411.63;;;13.63;100.00
22688;BME280;11511;51.514;7.080;2023-09-19T01:10:49;100402.50;;;13.68;100.00
22688;BME280;11511;51.514;7.080;2023-09-19T01:21:29;100415.28;;;13.60;100.00
22688;BME280;11511;51.514;7.080;2023-09-19T01:24:33;100420.44;;;13.46;100.00
22688;BME280;11511;51.514;7.080;2023-09-19T01:30:31;100433.44;;;13.50;100.00
22688;BME280;11511;51.514;7.080;2023-09-19T01:32:54;100431.19;;;13.60;100.00
22688;BME280;11511;51.514;7.080;2023-09-19T01:35:20;100426.88;;;13.40;100.00
22688;BME280;11511;51.514;7.080;2023-09-19T01:37:45;100435.44;;;13.45;100.00
22688;BME280;11511;51.514;7.080;2023-09-19T01:40:14;100431.72;;;13.32;100.00
22688;BME280;11511;51.514;7.080;2023-09-19T01:42:58;100441.84;;;13.59;100.00
22688;BME280;11511;51.514;7.080;2023-09-19T01:51:06;100447.75;;;13.29;100.00
22688;BME280;11511;51.514;7.080;2023-09-19T01:54:01;100453.59;;;13.36;100.00
22688;BME280;11511;51.514;7.080;2023-09-19T02:00:01;100456.13;;;13.20;100.00
22688;BME280;11511;51.514;7.080;2023-09-19T02:02:35;100448.22;;;13.37;100.00
22688;BME280;11511;51.514;7.080;2023-09-19T02:05:01;100447.75;;;13.46;100.00
22688;BME280;11511;51.514;7.080;2023-09-19T02:07:29;100442.31;;;13.32;100.00
22688;BME280;11511;51.514;7.080;2023-09-19T02:09:56;100451.19;;;13.31;100.00
22688;BME280;11511;51.514;7.080;2023-09-19T02:12:21;100448.47;;;13.33;100.00
22688;BME280;11511;51.514;7.080;2023-09-19T02:14:47;100450.19;;;13.34;100.00
22688;BME280;11511;51.514;7.080;2023-09-19T02:17:13;100451.97;;;13.14;100.00
22688;BME280;11511;51.514;7.080;2023-09-19T02:19:38;100450.50;;;13.09;100.00
22688;BME280;11511;51.514;7.080;2023-09-19T02:22:04;100452.53;;;13.04;100.00
22688;BME280;11511;51.514;7.080;2023-09-19T02:24:35;100463.06;;;13.23;100.00
22688;BME280;11511;51.514;7.080;2023-09-19T02:27:00;100469.03;;;13.09;100.00
22688;BME280;11511;51.514;7.080;2023-09-19T02:29:29;100467.44;;;13.24;100.00
22688;BME280;11511;51.514;7.080;2023-09-19T02:31:55;100465.19;;;13.33;100.00
22688;BME280;11511;51.514;7.080;2023-09-19T02:34:21;100463.56;;;13.31;100.00
22688;BME280;11511;51.514;7.080;2023-09-19T02:36:47;100476.59;;;13.16;100.00
22688;BME280;11511;51.514;7.080;2023-09-19T02:39:12;100469.50;;;13.17;100.00
22688;BME280;11511;51.514;7.080;2023-09-19T02:41:38;100478.13;;;13.39;100.00
22688;BME280;11511;51.514;7.080;2023-09-19T02:44:03;100458.94;;;13.17;100.00
22688;BME280;11511;51.514;7.080;2023-09-19T02:46:32;100468.88;;;13.12;100.00
22688;BME280;11511;51.514;7.080;2023-09-19T02:48:57;100473.28;;;13.30;100.00
22688;BME280;11511;51.514;7.080;2023-09-19T02:51:23;100465.03;;;13.36;100.00
22688;BME280;11511;51.514;7.080;2023-09-19T02:53:49;100477.97;;;13.06;100.00
22688;BME280;11511;51.514;7.080;2023-09-19T02:56:17;100473.72;;;13.21;100.00
22688;BME280;11511;51.514;7.080;2023-09-19T02:58:43;100477.09;;;13.06;100.00
22688;BME280;11511;51.514;7.080;2023-09-19T03:01:12;100481.75;;;13.01;100.00
22688;BME280;11511;51.514;7.080;2023-09-19T03:03:37;100488.25;;;12.94;100.00
22688;BME280;11511;51.514;7.080;2023-09-19T03:06:05;100490.03;;;13.12;100.00
22688;BME280;11511;51.514;7.080;2023-09-19T03:08:31;100485.47;;;12.97;100.00
22688;BME280;11511;51.514;7.080;2023-09-19T03:10:56;100494.75;;;13.05;100.00
22688;BME280;11511;51.514;7.080;2023-09-19T03:13:21;100498.31;;;13.04;100.00
22688;BME280;11511;51.514;7.080;2023-09-19T03:15:47;100495.97;;;12.98;100.00
22688;BME280;11511;51.514;7.080;2023-09-19T03:18:15;100497.47;;;13.04;100.00
22688;BME280;11511;51.514;7.080;2023-09-19T03:20:41;100488.88;;;13.17;100.00
22688;BME280;11511;51.514;7.080;2023-09-19T03:23:06;100494.91;;;13.02;100.00
22688;BME280;11511;51.514;7.080;2023-09-19T03:25:36;100493.31;;;13.17;100.00
22688;BME280;11511;51.514;7.080;2023-09-19T03:28:02;100484.75;;;12.93;100.00
22688;BME280;11511;51.514;7.080;2023-09-19T03:30:31;100485.50;;;13.14;100.00
22688;BME280;11511;51.514;7.080;2023-09-19T03:32:56;100478.75;;;13.08;100.00
22688;BME280;11511;51.514;7.080;2023-09-19T03:35:21;100485.59;;;13.12;100.00
22688;BME280;11511;51.514;7.080;2023-09-19T03:37:47;100483.25;;;13.06;100.00
22688;BME280;11511;51.514;7.080;2023-09-19T03:40:12;100487.63;;;12.88;100.00
22688;BME280;11511;51.514;7.080;2023-09-19T03:42:41;100487.78;;;12.85;100.00
22688;BME280;11511;51.514;7.080;2023-09-19T03:45:08;100488.34;;;12.92;100.00
22688;BME280;11511;51.514;7.080;2023-09-19T03:47:37;100475.78;;;12.78;100.00
22688;BME280;11511;51.514;7.080;2023-09-19T03:50:03;100488.53;;;12.87;100.00
22688;BME280;11511;51.514;7.080;2023-09-19T03:52:28;100489.59;;;13.02;100.00
22688;BME280;11511;51.514;7.080;2023-09-19T03:54:54;100481.97;;;12.96;100.00
22688;BME280;11511;51.514;7.080;2023-09-19T03:57:19;100476.81;;;12.93;100.00
22688;BME280;11511;51.514;7.080;2023-09-19T03:59:46;100482.41;;;12.87;100.00
22688;BME280;11511;51.514;7.080;2023-09-19T04:02:12;100481.41;;;12.89;100.00
22688;BME280;11511;51.514;7.080;2023-09-19T04:04:50;100494.25;;;12.97;100.00
22688;BME280;11511;51.514;7.080;2023-09-19T04:07:16;100489.34;;;12.71;100.00
22688;BME280;11511;51.514;7.080;2023-09-19T04:09:41;100493.72;;;12.72;100.00
22688;BME280;11511;51.514;7.080;2023-09-19T04:12:07;100485.44;;;12.79;100.00
22688;BME280;11511;51.514;7.080;2023-09-19T04:14:34;100497.41;;;12.86;100.00
22688;BME280;11511;51.514;7.080;2023-09-19T04:16:59;100481.03;;;12.97;100.00
22688;BME280;11511;51.514;7.080;2023-09-19T04:19:25;100482.66;;;12.82;100.00
22688;BME280;11511;51.514;7.080;2023-09-19T04:21:51;100477.75;;;12.92;100.00
22688;BME280;11511;51.514;7.080;2023-09-19T04:24:16;100493.53;;;12.58;100.00
22688;BME280;11511;51.514;7.080;2023-09-19T04:26:44;100487.78;;;12.67;100.00
22688;BME280;11511;51.514;7.080;2023-09-19T04:29:10;100499.44;;;12.81;100.00
22688;BME280;11511;51.514;7.080;2023-09-19T04:31:36;100492.72;;;12.74;100.00
22688;BME280;11511;51.514;7.080;2023-09-19T04:34:03;100487.78;;;12.67;100.00
22688;BME280;11511;51.514;7.080;2023-09-19T04:36:28;100498.44;;;12.84;100.00
22688;BME280;11511;51.514;7.080;2023-09-19T04:38:55;100494.94;;;12.83;100.00
22688;BME280;11511;51.514;7.080;2023-09-19T04:41:20;100496.25;;;12.92;100.00
22688;BME280;11511;51.514;7.080;2023-09-19T04:43:45;100487.94;;;12.82;100.00
22688;BME280;11511;51.514;7.080;2023-09-19T04:46:10;100495.44;;;12.73;100.00
22688;BME280;11511;51.514;7.080;2023-09-19T04:48:39;100487.88;;;12.84;100.00
22688;BME280;11511;51.514;7.080;2023-09-19T04:51:05;100483.81;;;12.94;100.00
22688;BME280;11511;51.514;7.080;2023-09-19T04:53:30;100488.47;;;12.89;100.00
22688;BME280;11511;51.514;7.080;2023-09-19T04:55:56;100492.84;;;12.90;100.00
22688;BME280;11511;51.514;7.080;2023-09-19T04:58:22;100497.00;;;12.77;100.00
22688;BME280;11511;51.514;7.080;2023-09-19T05:00:47;100503.88;;;12.81;100.00
22688;BME280;11511;51.514;7.080;2023-09-19T05:03:13;100502.25;;;12.96;100.00
22688;BME280;11511;51.514;7.080;2023-09-19T05:05:38;100516.69;;;13.07;100.00
22688;BME280;11511;51.514;7.080;2023-09-19T05:08:06;100515.06;;;13.05;100.00
22688;BME280;11511;51.514;7.080;2023-09-19T05:10:34;100523.06;;;13.03;100.00
22688;BME280;11511;51.514;7.080;2023-09-19T05:13:00;100522.78;;;12.91;100.00
22688;BME280;11511;51.514;7.080;2023-09-19T05:15:26;100534.06;;;12.94;100.00
22688;BME280;11511;51.514;7.080;2023-09-19T05:17:52;100536.50;;;12.99;100.00
22688;BME280;11511;51.514;7.080;2023-09-19T05:20:20;100542.72;;;12.98;100.00
22688;BME280;11511;51.514;7.080;2023-09-19T05:23:12;100548.09;;;13.13;100.00
22688;BME280;11511;51.514;7.080;2023-09-19T05:25:39;100548.91;;;12.97;100.00
22688;BME280;11511;51.514;7.080;2023-09-19T05:28:05;100551.84;;;12.91;100.00
22688;BME280;11511;51.514;7.080;2023-09-19T05:30:32;100556.78;;;12.98;100.00
22688;BME280;11511;51.514;7.080;2023-09-19T05:32:57;100560.94;;;13.04;100.00
22688;BME280;11511;51.514;7.080;2023-09-19T05:35:24;100568.34;;;13.14;100.00
22688;BME280;11511;51.514;7.080;2023-09-19T05:37:53;100573.69;;;13.13;100.00
22688;BME280;11511;51.514;7.080;2023-09-19T05:40:21;100579.50;;;13.21;100.00
22688;BME280;11511;51.514;7.080;2023-09-19T05:42:47;100571.66;;;13.19;100.00
22688;BME280;11511;51.514;7.080;2023-09-19T05:45:13;100577.66;;;13.23;100.00
22688;BME280;11511;51.514;7.080;2023-09-19T05:47:42;100582.72;;;13.28;100.00
22688;BME280;11511;51.514;7.080;2023-09-19T05:50:11;100578.66;;;13.39;100.00
22688;BME280;11511;51.514;7.080;2023-09-19T05:52:37;100576.53;;;13.46;100.00
22688;BME280;11511;51.514;7.080;2023-09-19T05:55:06;100570.88;;;13.53;100.00
22688;BME280;11511;51.514;7.080;2023-09-19T05:57:36;100582.03;;;13.60;100.00
22688;BME280;11511;51.514;7.080;2023-09-19T06:00:05;100580.63;;;13.70;100.00
22688;BME280;11511;51.514;7.080;2023-09-19T06:02:35;100573.59;;;13.69;100.00
22688;BME280;11511;51.514;7.080;2023-09-19T06:05:01;100569.94;;;13.72;100.00
22688;BME280;11511;51.514;7.080;2023-09-19T06:07:26;100577.81;;;13.73;100.00
22688;BME280;11511;51.514;7.080;2023-09-19T06:09:53;100573.22;;;13.77;100.00
22688;BME280;11511;51.514;7.080;2023-09-19T06:12:21;100568.72;;;13.79;100.00
22688;BME280;11511;51.514;7.080;2023-09-19T06:14:46;100560.56;;;13.83;100.00
22688;BME280;11511;51.514;7.080;2023-09-19T06:17:13;100562.03;;;13.89;100.00
22688;BME280;11511;51.514;7.080;2023-09-19T06:19:39;100547.44;;;13.98;100.00
22688;BME280;11511;51.514;7.080;2023-09-19T06:22:04;100555.09;;;14.04;100.00
22688;BME280;11511;51.514;7.080;2023-09-19T06:24:30;100570.13;;;14.03;100.00
22688;BME280;11511;51.514;7.080;2023-09-19T06:26:55;100573.94;;;14.15;100.00
22688;BME280;11511;51.514;7.080;2023-09-19T06:29:21;100569.88;;;14.08;100.00
22688;BME280;11511;51.514;7.080;2023-09-19T06:31:48;100564.34;;;14.12;100.00
22688;BME280;11511;51.514;7.080;2023-09-19T06:34:13;100569.50;;;14.15;100.00
22688;BME280;11511;51.514;7.080;2023-09-19T06:36:43;100561.31;;;14.20;100.00
22688;BME280;11511;51.514;7.080;2023-09-19T06:39:10;100552.78;;;14.31;100.00
22688;BME280;11511;51.514;7.080;2023-09-19T06:41:37;100559.94;;;14.29;100.00
22688;BME280;11511;51.514;7.080;2023-09-19T06:44:04;100557.75;;;14.37;100.00
22688;BME280;11511;51.514;7.080;2023-09-19T06:46:30;100569.47;;;14.33;100.00
22688;BME280;11511;51.514;7.080;2023-09-19T06:48:58;100560.13;;;14.43;100.00
22688;BME280;11511;51.514;7.080;2023-09-19T06:51:23;100568.78;;;14.46;100.00
22688;BME280;11511;51.514;7.080;2023-09-19T06:53:48;100575.44;;;14.53;100.00
22688;BME280;11511;51.514;7.080;2023-09-19T06:56:14;100578.16;;;14.52;100.00
22688;BME280;11511;51.514;7.080;2023-09-19T06:58:39;100576.38;;;14.52;100.00
22688;BME280;11511;51.514;7.080;2023-09-19T07:01:04;100576.66;;;14.64;100.00
22688;BME280;11511;51.514;7.080;2023-09-19T07:03:30;100580.41;;;14.60;100.00
22688;BME280;11511;51.514;7.080;2023-09-19T07:05:56;100584.13;;;14.73;100.00
22688;BME280;11511;51.514;7.080;2023-09-19T07:08:21;100571.66;;;14.75;100.00
22688;BME280;11511;51.514;7.080;2023-09-19T07:10:47;100576.25;;;14.71;100.00
22688;BME280;11511;51.514;7.080;2023-09-19T07:13:18;100587.47;;;14.76;100.00
22688;BME280;11511;51.514;7.080;2023-09-19T07:15:44;100583.13;;;14.91;100.00
22688;BME280;11511;51.514;7.080;2023-09-19T07:18:13;100585.19;;;15.02;100.00
22688;BME280;11511;51.514;7.080;2023-09-19T07:20:40;100588.44;;;14.91;100.00
22688;BME280;11511;51.514;7.080;2023-09-19T07:23:14;100591.25;;;15.19;100.00
22688;BME280;11511;51.514;7.080;2023-09-19T07:25:40;100591.00;;;15.08;100.00
22688;BME280;11511;51.514;7.080;2023-09-19T07:28:05;100591.59;;;15.13;100.00
22688;BME280;11511;51.514;7.080;2023-09-19T07:30:31;100586.97;;;15.17;100.00
22688;BME280;11511;51.514;7.080;2023-09-19T07:32:56;100586.91;;;15.18;100.00
22688;BME280;11511;51.514;7.080;2023-09-19T07:35:21;100590.91;;;15.41;100.00
22688;BME280;11511;51.514;7.080;2023-09-19T07:37:48;100587.66;;;15.52;100.00
22688;BME280;11511;51.514;7.080;2023-09-19T07:40:17;100595.44;;;15.39;100.00
22688;BME280;11511;51.514;7.080;2023-09-19T07:42:42;100597.25;;;15.39;100.00
22688;BME280;11511;51.514;7.080;2023-09-19T07:45:10;100602.13;;;15.62;100.00
22688;BME280;11511;51.514;7.080;2023-09-19T07:47:48;100587.13;;;15.61;100.00
22688;BME280;11511;51.514;7.080;2023-09-19T07:50:18;100597.50;;;15.66;100.00
22688;BME280;11511;51.514;7.080;2023-09-19T07:52:47;100595.34;;;15.72;100.00
22688;BME280;11511;51.514;7.080;2023-09-19T07:55:13;100595.19;;;15.60;100.00
22688;BME280;11511;51.514;7.080;2023-09-19T07:57:42;100606.78;;;15.88;100.00
22688;BME280;11511;51.514;7.080;2023-09-19T08:00:08;100589.88;;;15.75;100.00
22688;BME280;11511;51.514;7.080;2023-09-19T08:02:36;100595.00;;;15.78;100.00
22688;BME280;11511;51.514;7.080;2023-09-19T08:05:03;100604.34;;;16.00;100.00
22688;BME280;11511;51.514;7.080;2023-09-19T08:07:32;100599.19;;;16.12;100.00
22688;BME280;11511;51.514;7.080;2023-09-19T08:09:57;100611.56;;;15.98;100.00
22688;BME280;11511;51.514;7.080;2023-09-19T08:12:26;100610.88;;;16.24;100.00
22688;BME280;11511;51.514;7.080;2023-09-19T08:14:52;100607.66;;;16.33;100.00
22688;BME280;11511;51.514;7.080;2023-09-19T08:17:17;100615.06;;;16.42;100.00
22688;BME280;11511;51.514;7.080;2023-09-19T08:19:45;100605.00;;;16.33;100.00
22688;BME280;11511;51.514;7.080;2023-09-19T08:22:11;100615.59;;;16.77;100.00
22688;BME280;11511;51.514;7.080;2023-09-19T08:24:37;100622.41;;;16.53;100.00
22688;BME280;11511;51.514;7.080;2023-09-19T08:27:04;100622.41;;;16.39;100.00
22688;BME280;11511;51.514;7.080;2023-09-19T08:29:30;100628.56;;;16.39;100.00
22688;BME280;11511;51.514;7.080;2023-09-19T08:31:59;100630.16;;;16.42;100.00
22688;BME280;11511;51.514;7.080;2023-09-19T08:34:25;100620.69;;;17.23;100.00
22688;BME280;11511;51.514;7.080;2023-09-19T08:36:54;100622.41;;;17.51;100.00
22688;BME280;11511;51.514;7.080;2023-09-19T08:39:24;100617.47;;;17.86;100.00
22688;BME280;11511;51.514;7.080;2023-09-19T08:41:57;100613.19;;;18.48;100.00
22688;BME280;11511;51.514;7.080;2023-09-19T08:44:23;100614.25;;;18.46;100.00
22688;BME280;11511;51.514;7.080;2023-09-19T08:46:52;100613.44;;;17.93;100.00
22688;BME280;11511;51.514;7.080;2023-09-19T08:49:46;100612.16;;;18.64;100.00
22688;BME280;11511;51.514;7.080;2023-09-19T08:52:22;100616.31;;;18.80;100.00
22688;BME280;11511;51.514;7.080;2023-09-19T08:54:52;100607.91;;;18.09;100.00
22688;BME280;11511;51.514;7.080;2023-09-19T08:57:19;100614.94;;;18.75;100.00
22688;BME280;11511;51.514;7.080;2023-09-19T08:59:48;100622.28;;;19.70;100.00
22688;BME280;11511;51.514;7.080;2023-09-19T09:02:16;100603.75;;;19.43;100.00
22688;BME280;11511;51.514;7.080;2023-09-19T09:04:45;100607.09;;;19.94;100.00
22688;BME280;11511;51.514;7.080;2023-09-19T09:07:11;100600.09;;;20.84;100.00
22688;BME280;11511;51.514;7.080;2023-09-19T09:09:41;100587.09;;;20.46;100.00
22688;BME280;11511;51.514;7.080;2023-09-19T09:12:12;100600.69;;;20.08;100.00
22688;BME280;11511;51.514;7.080;2023-09-19T09:14:39;100609.75;;;20.75;100.00
22688;BME280;11511;51.514;7.080;2023-09-19T09:17:05;100590.16;;;22.57;100.00
22688;BME280;11511;51.514;7.080;2023-09-19T09:19:32;100602.06;;;20.48;100.00
22688;BME280;11511;51.514;7.080;2023-09-19T09:22:08;100579.63;;;22.23;100.00
22688;BME280;11511;51.514;7.080;2023-09-19T09:24:34;100582.50;;;21.58;100.00
22688;BME280;11511;51.514;7.080;2023-09-19T09:27:03;100590.06;;;18.87;100.00
22688;BME280;11511;51.514;7.080;2023-09-19T09:29:48;100586.53;;;19.47;100.00
22688;BME280;11511;51.514;7.080;2023-09-19T09:32:23;100579.38;;;19.47;100.00
22688;BME280;11511;51.514;7.080;2023-09-19T09:34:53;100580.25;;;20.42;100.00
22688;BME280;11511;51.514;7.080;2023-09-19T09:37:19;100574.28;;;22.03;100.00
22688;BME280;11511;51.514;7.080;2023-09-19T09:39:58;100577.88;;;22.34;100.00
22688;BME280;11511;51.514;7.080;2023-09-19T09:42:43;100573.81;;;22.70;100.00
22688;BME280;11511;51.514;7.080;2023-09-19T09:47:42;100575.66;;;22.39;100.00
22688;BME280;11511;51.514;7.080;2023-09-19T09:50:32;100585.31;;;19.03;100.00
22688;BME280;11511;51.514;7.080;2023-09-19T09:53:23;100591.13;;;18.72;100.00
22688;BME280;11511;51.514;7.080;2023-09-19T09:56:07;100586.09;;;20.01;100.00
22688;BME280;11511;51.514;7.080;2023-09-19T09:58:37;100578.00;;;19.18;100.00
22688;BME280;11511;51.514;7.080;2023-09-19T10:01:06;100578.13;;;21.46;100.00
22688;BME280;11511;51.514;7.080;2023-09-19T10:03:37;100575.66;;;22.39;100.00
22688;BME280;11511;51.514;7.080;2023-09-19T10:06:09;100579.75;;;22.73;100.00
22688;BME280;11511;51.514;7.080;2023-09-19T10:11:42;100585.84;;;19.92;100.00
22688;BME280;11511;51.514;7.080;2023-09-19T10:14:09;100587.03;;;19.41;100.00
22688;BME280;11511;51.514;7.080;2023-09-19T10:16:40;100587.19;;;19.74;100.00
22688;BME280;11511;51.514;7.080;2023-09-19T10:19:07;100576.72;;;18.87;100.00
22688;BME280;11511;51.514;7.080;2023-09-19T10:21:35;100569.31;;;20.45;100.00
22688;BME280;11511;51.514;7.080;2023-09-19T10:24:02;100551.13;;;22.53;100.00
22688;BME280;11511;51.514;7.080;2023-09-19T10:26:34;100564.81;;;23.11;100.00
22688;BME280;11511;51.514;7.080;2023-09-19T10:29:01;100561.41;;;20.54;100.00
22688;BME280;11511;51.514;7.080;2023-09-19T10:31:28;100554.94;;;22.50;100.00
22688;BME280;11511;51.514;7.080;2023-09-19T10:33:55;100553.16;;;22.60;100.00
22688;BME280;11511;51.514;7.080;2023-09-19T10:36:24;100552.41;;;21.86;100.00
22688;BME280;11511;51.514;7.080;2023-09-19T10:38:52;100545.81;;;22.11;100.00
22688;BME280;11511;51.514;7.080;2023-09-19T10:41:21;100558.31;;;23.13;100.00
22688;BME280;11511;51.514;7.080;2023-09-19T10:43:48;100558.22;;;24.21;100.00
22688;BME280;11511;51.514;7.080;2023-09-19T10:46:14;100553.63;;;22.45;100.00
22688;BME280;11511;51.514;7.080;2023-09-19T10:48:40;100555.28;;;22.36;100.00
22688;BME280;11511;51.514;7.080;2023-09-19T10:51:16;100550.66;;;24.44;100.00
22688;BME280;11511;51.514;7.080;2023-09-19T10:53:51;100543.94;;;24.30;100.00
22688;BME280;11511;51.514;7.080;2023-09-19T10:56:29;100536.38;;;22.17;100.00
22688;BME280;11511;51.514;7.080;2023-09-19T10:59:11;100538.50;;;21.06;100.00
22688;BME280;11511;51.514;7.080;2023-09-19T11:02:17;100542.88;;;22.75;100.00
22688;BME280;11511;51.514;7.080;2023-09-19T11:04:43;100548.84;;;25.89;95.81
22688;BME280;11511;51.514;7.080;2023-09-19T11:09:46;100571.38;;;21.31;100.00
22688;BME280;11511;51.514;7.080;2023-09-19T11:15:02;100552.59;;;21.08;100.00
22688;BME280;11511;51.514;7.080;2023-09-19T11:30:45;100543.09;;;22.83;100.00
22688;BME280;11511;51.514;7.080;2023-09-19T11:36:10;100546.53;;;22.65;100.00
22688;BME280;11511;51.514;7.080;2023-09-19T11:43:47;100553.44;;;21.95;100.00
22688;BME280;11511;51.514;7.080;2023-09-19T11:46:13;100571.56;;;20.27;100.00
22688;BME280;11511;51.514;7.080;2023-09-19T11:48:42;100554.88;;;20.12;100.00
22688;BME280;11511;51.514;7.080;2023-09-19T11:51:13;100551.31;;;22.10;100.00
22688;BME280;11511;51.514;7.080;2023-09-19T11:54:00;100533.41;;;21.99;100.00
22688;BME280;11511;51.514;7.080;2023-09-19T11:56:28;100553.03;;;21.47;100.00
22688;BME280;11511;51.514;7.080;2023-09-19T11:58:55;100534.28;;;22.00;100.00
22688;BME280;11511;51.514;7.080;2023-09-19T12:01:28;100546.06;;;21.55;100.00
22688;BME280;11511;51.514;7.080;2023-09-19T12:03:58;100535.31;;;21.87;100.00
22688;BME280;11511;51.514;7.080;2023-09-19T12:06:29;100523.22;;;21.40;100.00
22688;BME280;11511;51.514;7.080;2023-09-19T12:09:01;100544.13;;;22.92;100.00
22688;BME280;11511;51.514;7.080;2023-09-19T12:11:32;100535.53;;;20.77;100.00
22688;BME280;11511;51.514;7.080;2023-09-19T12:13:58;100536.84;;;21.37;100.00
22688;BME280;11511;51.514;7.080;2023-09-19T12:16:26;100530.28;;;20.76;100.00
22688;BME280;11511;51.514;7.080;2023-09-19T12:18:55;100509.06;;;24.09;100.00
22688;BME280;11511;51.514;7.080;2023-09-19T12:21:26;100505.88;;;22.39;100.00
22688;BME280;11511;51.514;7.080;2023-09-19T12:26:39;100514.16;;;23.06;100.00
22688;BME280;11511;51.514;7.080;2023-09-19T12:29:13;100514.47;;;22.12;100.00
22688;BME280;11511;51.514;7.080;2023-09-19T12:31:56;100512.19;;;24.34;95.81
22688;BME280;11511;51.514;7.080;2023-09-19T12:34:32;100500.03;;;23.14;96.75
22688;BME280;11511;51.514;7.080;2023-09-19T12:39:46;100518.19;;;23.41;95.39
22688;BME280;11511;51.514;7.080;2023-09-19T12:42:15;100499.84;;;22.56;95.65
22688;BME280;11511;51.514;7.080;2023-09-19T12:44:43;100483.78;;;23.35;95.97
22688;BME280;11511;51.514;7.080;2023-09-19T12:47:10;100492.72;;;22.36;95.53
22688;BME280;11511;51.514;7.080;2023-09-19T12:49:36;100487.56;;;22.23;93.94
22688;BME280;11511;51.514;7.080;2023-09-19T12:52:01;100490.78;;;22.47;95.05
22688;BME280;11511;51.514;7.080;2023-09-19T12:54:40;100493.75;;;22.14;94.88
22688;BME280;11511;51.514;7.080;2023-09-19T12:57:05;100488.59;;;21.90;99.95
22688;BME280;11511;51.514;7.080;2023-09-19T12:59:31;100482.78;;;21.43;100.00
22688;BME280;11511;51.514;7.080;2023-09-19T13:02:03;100491.28;;;22.72;96.78
22688;BME280;11511;51.514;7.080;2023-09-19T13:04:29;100507.81;;;23.26;95.58
22688;BME280;11511;51.514;7.080;2023-09-19T13:06:55;100480.09;;;22.57;97.04
22688;BME280;11511;51.514;7.080;2023-09-19T13:09:26;100473.19;;;22.03;99.66
22688;BME280;11511;51.514;7.080;2023-09-19T13:12:00;100471.31;;;22.55;94.04
22688;BME280;11511;51.514;7.080;2023-09-19T13:14:28;100485.53;;;22.46;100.00
22688;BME280;11511;51.514;7.080;2023-09-19T13:17:06;100484.38;;;21.87;100.00
22688;BME280;11511;51.514;7.080;2023-09-19T13:19:49;100476.16;;;22.61;96.37
22688;BME280;11511;51.514;7.080;2023-09-19T13:22:39;100480.22;;;22.55;95.69
22688;BME280;11511;51.514;7.080;2023-09-19T13:25:07;100504.19;;;22.47;97.16
22688;BME280;11511;51.514;7.080;2023-09-19T13:27:33;100493.19;;;22.50;96.84
22688;BME280;11511;51.514;7.080;2023-09-19T13:29:58;100487.19;;;23.37;92.29
22688;BME280;11511;51.514;7.080;2023-09-19T13:32:24;100493.13;;;21.89;97.29
22688;BME280;11511;51.514;7.080;2023-09-19T13:34:49;100485.34;;;21.34;100.00
22688;BME280;11511;51.514;7.080;2023-09-19T13:37:16;100498.78;;;20.68;100.00
22688;BME280;11511;51.514;7.080;2023-09-19T13:39:43;100480.19;;;21.74;100.00
22688;BME280;11511;51.514;7.080;2023-09-19T13:42:15;100487.84;;;21.14;100.00
22688;BME280;11511;51.514;7.080;2023-09-19T13:44:41;100484.94;;;21.06;100.00